Time;durP1;ratioP1;P1;durP2;ratioP2;P2;SDS_P1;SDS_P2;PMS_P1;PMS_P2;Temp;Humidity;BMP_temperature;BMP_pressure;BME280_temperature;BME280_humidity;BME280_pressure;Samples;Min_cycle;Max_cycle;Signal;HPM_P1;HPM_P2
2022/03/01 00:00:33;;;;;;;65.90;27.90;;;;;;;-4.63;73.24;101969.36;213649;1274;141196;-69
2022/03/01 00:05:45;;;;;;;62.60;28.90;;;;;;;-4.69;73.35;101963.76;213184;1274;140920;-70
2022/03/01 00:10:51;;;;;;;57.40;28.30;;;;;;;-4.80;73.07;101965.39;214009;1274;141070;-71
2022/03/01 00:15:55;;;;;;;61.40;28.90;;;;;;;-4.92;73.08;101963.97;213822;1276;140884;-69
2022/03/01 00:21:00;;;;;;;58.70;28.80;;;;;;;-4.96;73.53;101968.03;212949;1274;141578;-66
2022/03/01 00:26:05;;;;;;;72.10;31.80;;;;;;;-4.97;73.66;101963.71;215047;1274;142615;-74
2022/03/01 00:31:11;;;;;;;65.50;31.70;;;;;;;-4.96;73.83;101965.75;213655;1275;142655;-70
2022/03/01 00:36:16;;;;;;;71.40;33.10;;;;;;;-4.97;73.81;101960.62;213299;1274;142535;-69
2022/03/01 00:41:20;;;;;;;56.60;28.00;;;;;;;-5.02;73.82;101956.69;214752;1276;141682;-68
2022/03/01 00:46:26;;;;;;;67.00;30.20;;;;;;;-5.02;74.12;101957.92;215889;1274;142336;-72
2022/03/01 00:51:30;;;;;;;58.50;28.90;;;;;;;-4.97;74.38;101959.04;215710;1274;141432;-72
2022/03/01 00:56:34;;;;;;;58.90;27.80;;;;;;;-4.89;74.45;101953.23;214982;1276;143662;-72
2022/03/01 01:01:39;;;;;;;54.40;25.00;;;;;;;-4.87;74.25;101947.72;215517;1276;152668;-72
2022/03/01 01:06:44;;;;;;;63.20;28.80;;;;;;;-4.88;74.04;101948.81;215359;1274;143228;-70
2022/03/01 01:11:49;;;;;;;58.40;30.20;;;;;;;-4.90;74.20;101947.88;214676;1274;145578;-70
2022/03/01 01:16:53;;;;;;;59.10;29.00;;;;;;;-4.89;74.27;101941.27;213637;1274;154192;-70
2022/03/01 01:27:21;;;;;;;53.60;24.80;;;;;;;-5.04;74.02;101940.70;213381;1276;142001;-67
2022/03/01 01:32:25;;;;;;;57.20;28.00;;;;;;;-5.07;74.35;101941.18;213455;1275;144671;-68
2022/03/01 01:37:29;;;;;;;68.40;32.50;;;;;;;-5.06;74.58;101929.70;213688;1274;142633;-69
2022/03/01 01:42:34;;;;;;;58.60;28.20;;;;;;;-5.04;74.73;101925.76;212919;1276;141324;-70
2022/03/01 01:47:38;;;;;;;54.30;26.90;;;;;;;-5.01;74.98;101920.05;213614;1274;141980;-71
2022/03/01 01:52:46;;;;;;;48.10;23.40;;;;;;;-4.95;75.27;101924.77;214292;1274;141733;-71
2022/03/01 01:57:51;;;;;;;59.00;26.90;;;;;;;-4.93;75.28;101924.49;213075;1275;141344;-71
2022/03/01 02:02:56;;;;;;;60.80;29.70;;;;;;;-4.91;75.50;101924.74;213161;1274;141585;-72
2022/03/01 02:08:04;;;;;;;64.20;34.20;;;;;;;-4.89;75.41;101928.91;214401;1275;140946;-68
2022/03/01 02:13:12;;;;;;;60.20;32.60;;;;;;;-4.85;75.44;101929.05;213035;1276;141622;-66
2022/03/01 02:18:17;;;;;;;78.60;38.70;;;;;;;-4.85;75.52;101924.93;213580;1274;250686;-71
2022/03/01 02:23:22;;;;;;;81.30;38.50;;;;;;;-4.86;75.43;101925.27;214100;1274;142399;-67
2022/03/01 02:28:26;;;;;;;68.40;32.50;;;;;;;-4.83;75.58;101920.46;212400;1276;1732096;-72
2022/03/01 02:33:30;;;;;;;69.70;36.80;;;;;;;-4.81;75.70;101922.58;214728;1275;142378;-71
2022/03/01 02:38:34;;;;;;;60.40;34.00;;;;;;;-4.82;75.47;101922.48;215717;1274;141166;-70
2022/03/01 02:43:37;;;;;;;66.50;34.40;;;;;;;-4.83;75.43;101923.58;214858;1276;141603;-71
2022/03/01 02:48:42;;;;;;;78.90;38.30;;;;;;;-4.86;75.61;101920.99;214415;1274;140988;-69
2022/03/01 02:53:47;;;;;;;85.20;39.70;;;;;;;-4.90;75.36;101917.42;214267;1274;141567;-69
2022/03/01 02:58:55;;;;;;;90.60;44.40;;;;;;;-4.93;75.66;101917.20;215778;1274;142266;-72
2022/03/01 03:04:00;;;;;;;78.20;42.20;;;;;;;-4.92;75.70;101916.64;215790;1274;141264;-73
2022/03/01 03:09:04;;;;;;;73.20;35.40;;;;;;;-4.94;75.55;101908.39;214899;1274;141875;-70
2022/03/01 03:14:08;;;;;;;79.00;37.40;;;;;;;-4.99;75.28;101903.81;214274;1276;142002;-69
2022/03/01 03:19:15;;;;;;;76.30;35.20;;;;;;;-5.01;75.52;101903.41;214216;1274;142047;-73
2022/03/01 03:24:22;;;;;;;75.00;37.40;;;;;;;-5.03;75.37;101899.88;214482;1274;142020;-73
2022/03/01 03:29:28;;;;;;;67.80;40.70;;;;;;;-5.09;75.45;101893.94;213625;1277;141898;-72
2022/03/01 03:34:32;;;;;;;76.30;37.40;;;;;;;-5.16;75.26;101891.70;215039;1274;142921;-72
2022/03/01 03:39:35;;;;;;;81.10;43.00;;;;;;;-5.23;75.23;101890.88;213928;1276;142605;-73
2022/03/01 03:44:42;;;;;;;86.90;45.90;;;;;;;-5.29;75.22;101887.38;213840;1274;142044;-73
2022/03/01 03:49:47;;;;;;;72.50;39.20;;;;;;;-5.34;75.52;101884.70;213753;1274;141766;-73
2022/03/01 03:54:51;;;;;;;76.00;35.30;;;;;;;-5.40;75.65;101877.02;213379;1274;142844;-72
2022/03/01 03:59:55;;;;;;;77.30;38.10;;;;;;;-5.47;75.42;101867.70;213598;1275;141635;-73
2022/03/01 04:05:00;;;;;;;78.90;39.00;;;;;;;-5.55;75.45;101864.86;214119;1277;143054;-70
2022/03/01 04:10:04;;;;;;;68.10;36.30;;;;;;;-5.62;75.42;101857.92;214088;1274;143022;-71
2022/03/01 04:15:10;;;;;;;69.10;34.00;;;;;;;-5.67;75.44;101855.77;214277;1275;144761;-72
2022/03/01 04:20:16;;;;;;;66.70;34.50;;;;;;;-5.72;75.57;101858.44;213100;1276;143393;-73
2022/03/01 04:25:20;;;;;;;65.60;33.60;;;;;;;-5.77;75.51;101860.79;213419;1274;141524;-71
2022/03/01 04:30:27;;;;;;;59.20;33.10;;;;;;;-5.86;75.53;101855.69;213500;1274;142845;-73
2022/03/01 04:35:34;;;;;;;69.50;37.30;;;;;;;-5.94;75.66;101853.03;213737;1274;153290;-73
2022/03/01 04:40:38;;;;;;;97.40;42.60;;;;;;;-6.04;75.53;101855.41;214797;1274;144243;-72
2022/03/01 04:45:44;;;;;;;82.20;39.30;;;;;;;-6.09;75.65;101844.42;213986;1274;143734;-72
2022/03/01 04:50:53;;;;;;;73.40;35.90;;;;;;;-6.12;75.72;101842.15;214053;1274;142400;-72
2022/03/01 04:55:58;;;;;;;70.80;37.90;;;;;;;-6.10;76.01;101838.77;214602;1274;142167;-72
2022/03/01 05:01:03;;;;;;;68.80;36.30;;;;;;;-6.10;76.01;101836.86;215943;1274;141658;-72
2022/03/01 05:06:08;;;;;;;78.20;40.50;;;;;;;-6.14;75.91;101835.16;215874;1274;141284;-72
2022/03/01 05:11:12;;;;;;;79.60;39.90;;;;;;;-6.16;75.87;101836.12;215913;1274;141968;-72
2022/03/01 05:16:17;;;;;;;82.80;38.70;;;;;;;-6.19;75.76;101835.08;215102;1274;141398;-72
2022/03/01 05:21:21;;;;;;;69.80;35.20;;;;;;;-6.22;75.76;101837.30;215685;1274;141824;-72
2022/03/01 05:26:24;;;;;;;66.90;29.80;;;;;;;-6.25;75.67;101839.88;214988;1274;142027;-72
2022/03/01 05:31:29;;;;;;;83.50;40.70;;;;;;;-6.30;75.62;101832.35;215420;1272;142471;-70
2022/03/01 05:36:33;;;;;;;82.00;41.20;;;;;;;-6.31;75.74;101833.60;214988;1274;143177;-72
2022/03/01 05:41:37;;;;;;;83.00;40.40;;;;;;;-6.28;75.90;101832.08;213818;1274;142193;-69
2022/03/01 05:46:42;;;;;;;78.70;34.90;;;;;;;-6.26;76.02;101832.11;214137;1274;141505;-71
2022/03/01 05:51:47;;;;;;;77.60;38.10;;;;;;;-6.24;76.05;101830.84;214272;1275;142581;-71
2022/03/01 05:56:50;;;;;;;91.10;40.60;;;;;;;-6.19;76.18;101835.09;214731;1274;141280;-70
2022/03/01 06:01:54;;;;;;;94.60;43.80;;;;;;;-6.13;76.22;101833.23;213182;1274;141000;-69
2022/03/01 06:06:59;;;;;;;93.10;41.40;;;;;;;-6.04;76.49;101840.70;214513;1274;141160;-69
2022/03/01 06:12:04;;;;;;;92.60;47.90;;;;;;;-5.94;76.47;101840.39;213634;1274;140419;-70
2022/03/01 06:17:09;;;;;;;84.70;40.80;;;;;;;-5.83;76.50;101848.46;213877;1274;142685;-66
2022/03/01 06:22:15;;;;;;;91.50;43.90;;;;;;;-5.70;76.78;101855.06;214140;1274;142582;-70
2022/03/01 06:27:19;;;;;;;90.70;43.80;;;;;;;-5.56;76.84;101848.45;214413;1274;141356;-71
2022/03/01 06:32:24;;;;;;;102.90;49.80;;;;;;;-5.40;76.91;101848.80;213617;1274;141020;-70
2022/03/01 06:37:28;;;;;;;104.00;48.80;;;;;;;-5.24;77.02;101850.41;213646;1274;141568;-67
2022/03/01 06:42:34;;;;;;;103.60;51.70;;;;;;;-5.11;77.01;101843.80;213866;1273;141689;-70
2022/03/01 06:47:39;;;;;;;104.10;48.80;;;;;;;-4.97;77.25;101840.61;213886;1272;238461;-70
2022/03/01 06:52:44;;;;;;;99.30;50.70;;;;;;;-4.82;77.35;101839.93;214222;1274;141873;-70
2022/03/01 06:57:49;;;;;;;115.70;56.10;;;;;;;-4.63;77.53;101845.13;214659;1274;140861;-70
2022/03/01 07:02:53;;;;;;;112.50;56.50;;;;;;;-4.44;77.56;101843.16;214607;1274;141176;-70
2022/03/01 07:07:58;;;;;;;114.70;56.20;;;;;;;-4.22;77.63;101843.96;215032;1274;141127;-71
2022/03/01 07:13:03;;;;;;;135.90;57.00;;;;;;;-3.94;77.71;101847.19;213479;1274;140704;-68
2022/03/01 07:18:07;;;;;;;130.50;63.60;;;;;;;-3.42;77.67;101842.86;215561;1274;141032;-70
2022/03/01 07:23:13;;;;;;;104.30;55.20;;;;;;;-2.13;77.59;101841.73;215554;1276;141820;-70
2022/03/01 07:28:18;;;;;;;106.50;53.70;;;;;;;-0.41;76.86;101835.23;215968;1274;140918;-73
2022/03/01 07:33:23;;;;;;;101.60;55.00;;;;;;;1.22;75.55;101839.60;214424;1274;140695;-71
2022/03/01 07:38:27;;;;;;;96.30;51.80;;;;;;;2.70;74.19;101836.48;213414;1274;140454;-71
2022/03/01 07:43:30;;;;;;;89.60;45.30;;;;;;;3.81;72.78;101838.90;214480;1274;142648;-72
2022/03/01 07:48:35;;;;;;;91.00;47.80;;;;;;;4.37;71.14;101832.91;215365;1274;140003;-72
2022/03/01 07:53:39;;;;;;;73.80;40.70;;;;;;;4.61;70.37;101831.44;213209;1274;140105;-72
2022/03/01 07:58:45;;;;;;;53.50;26.50;;;;;;;4.79;69.60;101827.09;213369;1274;140089;-73
2022/03/01 08:03:49;;;;;;;44.60;22.00;;;;;;;4.77;68.37;101825.94;214617;1274;140603;-72
2022/03/01 08:08:54;;;;;;;55.80;27.80;;;;;;;4.61;67.43;101823.91;213554;1275;139876;-72
2022/03/01 08:13:59;;;;;;;44.60;23.20;;;;;;;4.50;67.28;101819.67;213216;1274;140285;-72
2022/03/01 08:19:04;;;;;;;49.20;27.60;;;;;;;4.47;67.31;101817.88;213908;1274;139892;-72
2022/03/01 08:24:08;;;;;;;63.20;31.20;;;;;;;4.29;66.93;101810.70;213951;1274;140350;-69
2022/03/01 08:29:13;;;;;;;50.40;26.60;;;;;;;4.15;66.47;101808.39;214627;1274;140329;-72
2022/03/01 08:34:17;;;;;;;35.60;20.20;;;;;;;4.11;65.92;101809.63;213898;1274;139511;-72
2022/03/01 08:39:22;;;;;;;27.80;15.10;;;;;;;4.11;65.13;101808.24;213743;1274;139579;-71
2022/03/01 08:44:26;;;;;;;34.10;17.90;;;;;;;4.04;64.49;101806.79;213521;1274;139574;-71
2022/03/01 08:49:32;;;;;;;32.50;17.20;;;;;;;3.99;64.68;101806.30;213374;1274;143345;-72
2022/03/01 08:54:36;;;;;;;21.00;13.10;;;;;;;4.04;64.03;101804.05;214696;1274;141086;-72
2022/03/01 08:59:41;;;;;;;15.90;8.80;;;;;;;4.10;63.16;101802.89;214453;1275;141692;-71
2022/03/01 09:04:46;;;;;;;12.70;7.20;;;;;;;4.15;62.36;101798.34;214699;1274;139899;-72
2022/03/01 09:09:51;;;;;;;13.30;8.80;;;;;;;4.16;61.59;101803.02;216008;1274;141193;-71
2022/03/01 09:14:56;;;;;;;8.00;4.80;;;;;;;4.07;60.70;101804.33;214212;1274;141532;-69
2022/03/01 09:20:04;;;;;;;13.10;7.50;;;;;;;4.04;60.36;101792.80;215921;1274;139985;-72
2022/03/01 09:25:09;;;;;;;8.60;5.20;;;;;;;4.08;59.95;101790.72;216162;1274;141906;-73
2022/03/01 09:30:14;;;;;;;7.90;4.70;;;;;;;4.07;59.30;101783.25;216080;1274;140251;-72
2022/03/01 09:35:18;;;;;;;7.40;4.80;;;;;;;4.10;58.76;101772.73;215736;1274;139544;-73
2022/03/01 09:40:23;;;;;;;17.80;8.70;;;;;;;4.11;58.05;101774.98;215527;1274;140383;-74
2022/03/01 09:45:28;;;;;;;7.50;5.00;;;;;;;4.12;57.89;101769.56;214793;1274;140456;-73
2022/03/01 09:50:33;;;;;;;6.60;4.40;;;;;;;4.14;57.63;101763.92;213751;1274;139424;-71
2022/03/01 09:55:39;;;;;;;8.50;5.40;;;;;;;4.21;57.48;101758.13;214078;1274;140429;-70
2022/03/01 10:00:45;;;;;;;9.30;5.70;;;;;;;4.24;57.05;101751.76;213367;1274;139314;-71
2022/03/01 10:05:51;;;;;;;8.40;5.10;;;;;;;4.30;56.86;101744.43;213831;1274;140329;-71
2022/03/01 10:10:58;;;;;;;11.60;6.00;;;;;;;4.37;56.63;101738.46;214227;1275;140472;-72
2022/03/01 10:16:12;;;;;;;9.10;6.20;;;;;;;4.46;56.47;101739.80;214269;1274;140305;-72
2022/03/01 10:21:21;;;;;;;13.80;6.60;;;;;;;4.52;56.17;101730.27;214025;1276;140827;-70
2022/03/01 10:26:31;;;;;;;8.40;7.30;;;;;;;4.61;55.48;101720.36;213643;1274;140954;-72
2022/03/01 10:31:35;;;;;;;8.90;7.40;;;;;;;4.72;55.61;101716.66;213875;1274;141091;-71
2022/03/01 10:36:47;;;;;;;11.70;6.50;;;;;;;4.83;55.21;101711.58;213782;1274;141725;-71
2022/03/01 10:41:52;;;;;;;11.90;6.70;;;;;;;4.80;54.05;101715.17;214559;1274;141446;-72
2022/03/01 10:47:01;;;;;;;6.80;4.60;;;;;;;4.78;54.08;101704.42;214489;1274;140277;-73
2022/03/01 10:52:08;;;;;;;10.40;6.50;;;;;;;4.84;54.20;101701.45;214444;1274;139963;-70
2022/03/01 10:57:23;;;;;;;6.10;5.10;;;;;;;4.91;53.67;101699.31;214487;1274;140337;-68
2022/03/01 11:02:28;;;;;;;12.20;8.10;;;;;;;4.92;53.01;101688.27;215291;1274;139974;-73
2022/03/01 11:07:34;;;;;;;8.80;6.10;;;;;;;4.89;52.75;101682.59;215165;1274;140452;-72
2022/03/01 11:12:42;;;;;;;27.00;7.70;;;;;;;4.96;52.52;101669.05;215503;1274;139513;-75
2022/03/01 11:17:52;;;;;;;9.70;5.70;;;;;;;5.04;52.06;101664.17;214741;1274;139685;-72
2022/03/01 11:22:58;;;;;;;;;;;;;;;5.09;51.56;101655.40;215891;1274;140955;-73
2022/03/01 11:28:05;;;;;;;10.80;6.00;;;;;;;5.11;51.47;101637.99;216397;1274;127284;-73
2022/03/01 11:33:11;;;;;;;6.40;4.40;;;;;;;5.21;50.85;101640.41;215934;1274;142117;-72
2022/03/01 11:38:17;;;;;;;10.30;4.90;;;;;;;5.17;50.24;101629.57;215816;1274;141340;-73
2022/03/01 11:43:27;;;;;;;7.90;5.40;;;;;;;5.10;49.78;101616.71;215888;1274;140048;-73
2022/03/01 11:48:45;;;;;;;7.00;4.70;;;;;;;5.24;50.49;101610.00;213418;1274;139341;-70
2022/03/01 11:53:53;;;;;;;11.40;5.00;;;;;;;5.39;49.84;101607.23;212895;1274;140346;-70
2022/03/01 11:59:07;;;;;;;7.40;4.70;;;;;;;5.48;49.41;101597.58;213782;1275;141104;-71
2022/03/01 12:04:12;;;;;;;11.30;6.20;;;;;;;5.49;48.83;101587.86;213570;1276;142786;-72
2022/03/01 12:09:17;;;;;;;8.80;5.60;;;;;;;5.48;48.36;101580.45;214321;1274;140600;-72
2022/03/01 12:14:28;;;;;;;6.50;4.50;;;;;;;5.48;47.53;101570.41;214284;1274;140570;-72
2022/03/01 12:19:33;;;;;;;6.20;5.00;;;;;;;5.49;47.65;101560.88;214811;1274;141917;-73
2022/03/01 12:24:38;;;;;;;9.40;5.90;;;;;;;5.57;47.60;101555.13;213284;1274;141391;-72
2022/03/01 12:29:47;;;;;;;7.70;5.20;;;;;;;5.57;47.41;101558.00;213183;1274;139294;-70
2022/03/01 12:34:52;;;;;;;10.30;6.30;;;;;;;5.52;46.40;101547.77;213921;1274;140646;-73
2022/03/01 12:39:57;;;;;;;9.50;5.30;;;;;;;5.46;46.09;101544.08;212872;1274;139788;-66
2022/03/01 12:45:03;;;;;;;6.50;4.80;;;;;;;5.40;46.08;101542.42;213382;1274;141247;-66
2022/03/01 12:50:25;;;;;;;4.40;4.00;;;;;;;5.36;45.64;101535.12;214720;1274;140654;-72
2022/03/01 12:55:30;;;;;;;9.30;3.70;;;;;;;5.34;45.28;101525.20;213207;1274;139804;-71
2022/03/01 13:00:33;;;;;;;4.40;3.50;;;;;;;5.34;45.05;101517.88;213838;1274;139986;-71
2022/03/01 13:05:38;;;;;;;7.60;5.60;;;;;;;5.34;44.61;101514.35;214229;1276;140011;-74
2022/03/01 13:10:43;;;;;;;7.10;4.30;;;;;;;5.34;44.60;101502.29;215542;1274;139617;-72
2022/03/01 13:15:47;;;;;;;7.00;4.20;;;;;;;5.34;44.36;101496.90;214271;1274;139804;-72
2022/03/01 13:20:52;;;;;;;4.90;3.80;;;;;;;5.33;44.61;101484.59;215590;1273;139450;-72
2022/03/01 13:25:57;;;;;;;7.20;5.10;;;;;;;5.37;44.19;101475.06;215954;1274;141560;-73
2022/03/01 13:31:04;;;;;;;10.70;6.50;;;;;;;5.24;44.76;101472.83;215817;1274;139675;-72
2022/03/01 13:36:13;;;;;;;11.80;5.60;;;;;;;5.04;45.10;101469.66;215663;1274;140334;-73
2022/03/01 13:41:29;;;;;;;6.20;4.50;;;;;;;4.86;45.62;101456.16;215793;1274;141078;-75
2022/03/01 13:46:34;;;;;;;8.20;5.20;;;;;;;4.83;45.84;101454.52;215425;1274;140273;-73
2022/03/01 13:51:39;;;;;;;7.90;5.60;;;;;;;4.77;45.47;101448.27;215972;1275;139098;-73
2022/03/01 13:56:48;;;;;;;6.60;4.20;;;;;;;4.72;45.20;101441.36;213777;1274;139852;-71
2022/03/01 14:01:53;;;;;;;7.20;4.40;;;;;;;4.66;45.07;101428.23;214149;1274;140385;-72
2022/03/01 14:07:01;;;;;;;4.80;4.20;;;;;;;4.60;45.02;101420.05;214165;1274;141297;-73
2022/03/01 14:12:10;;;;;;;7.00;4.40;;;;;;;4.55;44.76;101420.19;213779;1274;141333;-72
2022/03/01 14:17:22;;;;;;;8.90;4.10;;;;;;;4.47;44.62;101412.07;214761;1275;141436;-70
2022/03/01 14:22:27;;;;;;;8.60;4.90;;;;;;;4.37;44.66;101405.06;213335;1274;139080;-71
2022/03/01 14:27:32;;;;;;;25.50;13.70;;;;;;;4.37;45.34;101399.98;213085;1274;140922;-70
2022/03/01 14:32:37;;;;;;;8.00;4.70;;;;;;;4.39;45.42;101397.05;213119;1275;673372;-67
2022/03/01 14:37:41;;;;;;;11.60;5.40;;;;;;;4.25;45.02;101395.77;214032;1274;140327;-69
2022/03/01 14:42:49;;;;;;;9.10;5.70;;;;;;;4.11;45.12;101396.67;213905;1274;139991;-70
2022/03/01 14:47:53;;;;;;;5.70;4.30;;;;;;;3.99;45.03;101393.30;215281;1274;139931;-71
2022/03/01 14:52:58;;;;;;;6.70;4.60;;;;;;;3.92;44.98;101389.64;212872;1274;140166;-72
2022/03/01 14:58:03;;;;;;;7.40;5.70;;;;;;;3.79;44.95;101386.09;214117;1274;139635;-74
2022/03/01 15:03:08;;;;;;;10.50;5.20;;;;;;;3.67;45.18;101378.85;213968;1274;140702;-77
2022/03/01 15:08:14;;;;;;;8.70;4.30;;;;;;;3.61;45.98;101372.24;214636;1274;140242;-76
2022/03/01 15:13:19;;;;;;;11.90;7.50;;;;;;;3.53;46.12;101369.71;214176;1274;139822;-72
2022/03/01 15:18:23;;;;;;;13.20;6.90;;;;;;;3.36;46.31;101366.04;214277;1274;141164;-67
2022/03/01 15:23:31;;;;;;;7.60;6.20;;;;;;;3.20;47.04;101366.91;213569;1275;142202;-72
2022/03/01 15:28:38;;;;;;;8.00;5.20;;;;;;;3.07;46.88;101369.03;214205;1274;141980;-75
2022/03/01 15:33:43;;;;;;;10.20;6.40;;;;;;;2.92;47.27;101368.72;215384;1274;140244;-73
2022/03/01 15:38:48;;;;;;;11.20;8.00;;;;;;;2.79;47.24;101365.90;215987;1274;141157;-71
2022/03/01 15:43:52;;;;;;;9.70;6.30;;;;;;;2.70;47.51;101368.53;216042;1274;141397;-75
2022/03/01 15:48:57;;;;;;;10.40;5.20;;;;;;;2.58;47.38;101365.27;216097;1274;141096;-74
2022/03/01 15:54:02;;;;;;;10.30;6.10;;;;;;;2.47;47.85;101368.55;213790;1274;140808;-74
2022/03/01 15:59:06;;;;;;;8.30;5.90;;;;;;;2.36;47.73;101372.23;215843;1272;140327;-77
2022/03/01 16:04:10;;;;;;;9.50;6.40;;;;;;;2.23;47.80;101365.86;215666;1274;141086;-75
2022/03/01 16:09:13;;;;;;;12.60;6.70;;;;;;;2.11;48.65;101360.73;213161;1274;141411;-71
2022/03/01 16:14:18;;;;;;;12.20;6.80;;;;;;;2.01;49.31;101359.38;213730;1274;141306;-73
2022/03/01 16:19:22;;;;;;;12.10;8.30;;;;;;;1.86;50.46;101356.67;214820;1274;142342;-74
2022/03/01 16:24:27;;;;;;;28.00;13.50;;;;;;;1.71;50.53;101353.86;214692;1274;141503;-75
2022/03/01 16:29:31;;;;;;;18.70;8.40;;;;;;;1.51;50.55;101354.98;214619;1274;141358;-72
2022/03/01 16:34:36;;;;;;;11.00;6.40;;;;;;;1.21;51.15;101353.25;213226;1274;141692;-68
2022/03/01 16:39:42;;;;;;;8.40;6.50;;;;;;;0.88;52.18;101345.14;213522;1274;142842;-71
2022/03/01 16:44:47;;;;;;;6.30;4.40;;;;;;;0.58;52.50;101353.11;213567;1274;140397;-71
2022/03/01 16:49:51;;;;;;;15.30;6.00;;;;;;;0.20;52.74;101359.33;214430;1274;143585;-73
2022/03/01 16:54:59;;;;;;;12.30;7.50;;;;;;;-0.16;52.87;101360.89;213744;1274;140725;-70
2022/03/01 17:00:05;;;;;;;24.00;12.30;;;;;;;-0.32;53.71;101362.10;213124;1274;152601;-74
2022/03/01 17:05:10;;;;;;;38.20;19.50;;;;;;;-0.47;54.51;101357.86;213532;1274;142794;-71
2022/03/01 17:10:14;;;;;;;48.60;16.50;;;;;;;-0.61;54.96;101359.52;214090;1274;141418;-69
2022/03/01 17:15:19;;;;;;;26.00;13.90;;;;;;;-0.84;55.42;101359.23;214005;1274;141222;-72
2022/03/01 17:20:24;;;;;;;31.00;14.20;;;;;;;-0.96;55.62;101363.04;213607;1274;141418;-72
2022/03/01 17:25:29;;;;;;;34.10;16.10;;;;;;;-1.06;55.87;101362.02;214950;1274;141409;-72
2022/03/01 17:30:33;;;;;;;24.80;12.00;;;;;;;-1.18;56.16;101357.23;215612;1276;142048;-72
2022/03/01 17:35:38;;;;;;;29.30;15.00;;;;;;;-1.30;56.42;101358.02;212640;1274;142578;-66
2022/03/01 17:40:46;;;;;;;26.50;14.80;;;;;;;-1.37;57.14;101359.45;215642;1275;142480;-72
2022/03/01 17:45:50;;;;;;;28.30;13.20;;;;;;;-1.47;57.43;101357.20;215793;1274;141457;-67
2022/03/01 17:50:56;;;;;;;27.50;16.40;;;;;;;-1.54;57.96;101362.31;215661;1274;140659;-74
2022/03/01 17:56:01;;;;;;;31.40;17.00;;;;;;;-1.62;58.20;101365.35;215736;1274;142056;-74
2022/03/01 18:01:06;;;;;;;26.70;14.20;;;;;;;-1.74;58.22;101360.38;215569;1274;141862;-76
2022/03/01 18:06:11;;;;;;;22.70;12.40;;;;;;;-1.87;58.25;101359.78;215903;1274;141611;-73
2022/03/01 18:11:17;;;;;;;31.50;12.90;;;;;;;-2.01;58.59;101359.73;215774;1274;140986;-73
2022/03/01 18:16:22;;;;;;;25.80;12.00;;;;;;;-2.09;58.86;101353.55;215674;1274;141046;-73
2022/03/01 18:21:26;;;;;;;23.50;11.20;;;;;;;-2.18;58.92;101349.42;215315;1274;140705;-74
2022/03/01 18:26:33;;;;;;;25.00;11.40;;;;;;;-2.27;59.30;101346.77;214772;1274;140498;-74
2022/03/01 18:31:42;;;;;;;31.50;13.60;;;;;;;-2.36;59.46;101342.14;213902;1274;141957;-72
2022/03/01 18:36:49;;;;;;;26.10;14.70;;;;;;;-2.42;59.56;101340.20;214006;1274;142529;-70
2022/03/01 18:41:55;;;;;;;26.80;15.70;;;;;;;-2.52;59.67;101341.07;215312;1274;141681;-72
2022/03/01 18:47:04;;;;;;;26.10;14.60;;;;;;;-2.64;59.91;101339.50;214927;1275;165933;-73
2022/03/01 18:52:10;;;;;;;23.80;12.70;;;;;;;-2.74;60.22;101337.80;213613;1274;142801;-71
2022/03/01 18:57:15;;;;;;;25.50;11.30;;;;;;;-2.80;60.73;101342.11;213199;1274;141253;-72
2022/03/01 19:02:21;;;;;;;29.10;13.70;;;;;;;-2.88;61.41;101343.54;213374;1274;140799;-69
2022/03/01 19:07:33;;;;;;;29.90;13.90;;;;;;;-2.97;61.74;101339.50;213207;1274;140744;-70
2022/03/01 19:12:39;;;;;;;26.10;12.10;;;;;;;-3.11;61.84;101338.71;215219;1274;141770;-72
2022/03/01 19:17:45;;;;;;;28.80;13.00;;;;;;;-3.23;62.45;101340.59;213803;1274;139802;-70
2022/03/01 19:22:50;;;;;;;35.00;17.10;;;;;;;-3.31;62.53;101339.26;213494;1274;141123;-70
2022/03/01 19:27:57;;;;;;;34.50;14.60;;;;;;;-3.35;62.72;101335.58;214105;1274;140895;-68
2022/03/01 19:33:01;;;;;;;34.60;14.70;;;;;;;-3.40;62.88;101332.76;213362;1274;141906;-66
2022/03/01 19:38:06;;;;;;;28.10;15.10;;;;;;;-3.47;63.27;101326.44;215385;1274;141770;-77
2022/03/01 19:43:11;;;;;;;43.10;19.60;;;;;;;-3.53;63.39;101324.61;215084;1274;141716;-73
2022/03/01 19:48:19;;;;;;;37.80;18.90;;;;;;;-3.59;63.71;101324.88;215757;1276;141724;-70
2022/03/01 19:53:24;;;;;;;40.30;17.30;;;;;;;-3.71;64.03;101319.63;215465;1274;140538;-73
2022/03/01 19:58:29;;;;;;;37.20;18.70;;;;;;;-3.78;64.42;101326.54;215368;1276;141644;-73
2022/03/01 20:03:34;;;;;;;34.70;14.10;;;;;;;-3.84;64.39;101326.56;215896;1274;140606;-76
2022/03/01 20:08:40;;;;;;;27.50;13.50;;;;;;;-3.91;64.72;101323.73;215817;1274;140738;-74
2022/03/01 20:13:46;;;;;;;18.50;11.80;;;;;;;-3.99;65.10;101319.59;215936;1274;140199;-73
2022/03/01 20:18:51;;;;;;;27.20;14.40;;;;;;;-4.04;65.29;101313.52;214651;1274;141043;-73
2022/03/01 20:23:56;;;;;;;33.10;15.80;;;;;;;-4.05;65.50;101306.48;214591;1277;140038;-72
2022/03/01 20:29:01;;;;;;;32.90;15.90;;;;;;;-4.05;65.63;101302.83;214850;1274;142908;-73
2022/03/01 20:34:06;;;;;;;38.50;17.70;;;;;;;-4.07;65.76;101299.30;213187;1276;142101;-70
2022/03/01 20:39:11;;;;;;;38.70;16.80;;;;;;;-4.10;66.01;101293.95;214328;1274;141240;-75
2022/03/01 20:44:16;;;;;;;42.00;20.80;;;;;;;-4.14;66.02;101295.94;214341;1277;141513;-75
2022/03/01 20:49:24;;;;;;;46.60;23.90;;;;;;;-4.17;66.12;101294.07;214279;1274;143274;-75
2022/03/01 20:54:30;;;;;;;42.20;21.10;;;;;;;-4.21;66.14;101285.64;212832;1275;142645;-72
2022/03/01 20:59:34;;;;;;;53.40;25.70;;;;;;;-4.29;66.25;101285.33;213378;1277;142255;-74
2022/03/01 21:04:39;;;;;;;48.90;25.90;;;;;;;-4.36;66.22;101287.89;214112;1277;141032;-75
2022/03/01 21:09:47;;;;;;;51.80;26.70;;;;;;;-4.41;66.49;101284.89;213168;1274;142356;-67
2022/03/01 21:14:51;;;;;;;50.70;29.10;;;;;;;-4.46;66.73;101281.59;212781;1274;141628;-69
2022/03/01 21:19:55;;;;;;;57.90;29.30;;;;;;;-4.54;66.77;101276.91;214867;1274;142587;-74
2022/03/01 21:25:04;;;;;;;58.30;26.20;;;;;;;-4.62;67.03;101268.59;212906;1274;142203;-71
2022/03/01 21:30:11;;;;;;;57.20;25.20;;;;;;;-4.70;67.46;101263.89;214116;1274;141840;-72
2022/03/01 21:35:16;;;;;;;42.00;20.70;;;;;;;-4.74;68.03;101257.95;214676;1274;142527;-72
2022/03/01 21:40:20;;;;;;;43.60;23.20;;;;;;;-4.77;68.12;101250.82;214085;1274;140925;-71
2022/03/01 21:45:25;;;;;;;51.40;24.20;;;;;;;-4.78;68.26;101250.70;214919;1274;142761;-72
2022/03/01 21:50:32;;;;;;;73.30;26.50;;;;;;;-4.77;68.45;101246.15;214489;1274;141187;-73
2022/03/01 21:55:36;;;;;;;62.60;27.70;;;;;;;-4.77;68.50;101244.77;214954;1274;142489;-72
2022/03/01 22:00:41;;;;;;;69.50;31.30;;;;;;;-4.81;68.55;101237.73;213708;1274;141068;-73
2022/03/01 22:05:46;;;;;;;86.70;31.70;;;;;;;-4.82;68.64;101237.63;215701;1274;140940;-72
2022/03/01 22:10:55;;;;;;;112.40;44.50;;;;;;;-4.81;68.73;101236.73;215757;1274;140961;-73
2022/03/01 22:16:04;;;;;;;105.20;39.20;;;;;;;-4.80;68.81;101230.39;215904;1274;141104;-71
2022/03/01 22:21:08;;;;;;;109.00;43.90;;;;;;;-4.80;68.91;101229.16;215716;1274;142502;-73
2022/03/01 22:26:13;;;;;;;109.40;39.70;;;;;;;-4.78;69.38;101230.98;215812;1274;141306;-71
2022/03/01 22:31:18;;;;;;;128.80;46.70;;;;;;;-4.79;69.36;101230.52;214809;1274;141548;-74
2022/03/01 22:36:22;;;;;;;124.00;47.70;;;;;;;-4.82;69.48;101224.79;214570;1274;141790;-71
2022/03/01 22:41:26;;;;;;;137.90;51.10;;;;;;;-4.87;69.32;101224.25;214035;1274;141426;-71
2022/03/01 22:46:31;;;;;;;164.50;57.80;;;;;;;-4.95;69.41;101225.70;214987;1274;141154;-72
2022/03/01 22:51:35;;;;;;;139.60;52.30;;;;;;;-5.04;69.44;101219.48;213156;1274;141271;-69
2022/03/01 22:56:40;;;;;;;137.40;51.20;;;;;;;-5.14;69.46;101211.23;214751;1274;142428;-69